sensor_id;sensor_type;location;lat;lon;timestamp;P1;durP1;ratioP1;P2;durP2;ratioP2
1128;SDS011;553;51.038;7.216;2022-07-06T00:01:54;5.30;;;2.80;;
1128;SDS011;553;51.038;7.216;2022-07-06T00:04:21;7.57;;;3.23;;
1128;SDS011;553;51.038;7.216;2022-07-06T00:06:48;5.63;;;3.50;;
1128;SDS011;553;51.038;7.216;2022-07-06T00:09:15;6.57;;;3.20;;
1128;SDS011;553;51.038;7.216;2022-07-06T00:11:42;4.53;;;2.60;;
1128;SDS011;553;51.038;7.216;2022-07-06T00:14:09;8.07;;;3.50;;
1128;SDS011;553;51.038;7.216;2022-07-06T00:16:36;6.80;;;3.17;;
1128;SDS011;553;51.038;7.216;2022-07-06T00:19:03;5.27;;;3.60;;
1128;SDS011;553;51.038;7.216;2022-07-06T00:21:29;3.67;;;2.70;;
1128;SDS011;553;51.038;7.216;2022-07-06T00:23:56;3.70;;;2.90;;
1128;SDS011;553;51.038;7.216;2022-07-06T00:26:23;5.20;;;2.90;;
1128;SDS011;553;51.038;7.216;2022-07-06T00:28:50;3.33;;;2.37;;
1128;SDS011;553;51.038;7.216;2022-07-06T00:31:16;7.40;;;3.00;;
1128;SDS011;553;51.038;7.216;2022-07-06T00:33:43;6.90;;;3.03;;
1128;SDS011;553;51.038;7.216;2022-07-06T00:36:10;4.57;;;2.60;;
1128;SDS011;553;51.038;7.216;2022-07-06T00:38:37;3.23;;;2.90;;
1128;SDS011;553;51.038;7.216;2022-07-06T00:41:04;4.60;;;2.97;;
1128;SDS011;553;51.038;7.216;2022-07-06T00:43:46;5.43;;;3.17;;
1128;SDS011;553;51.038;7.216;2022-07-06T00:46:14;5.30;;;3.23;;
1128;SDS011;553;51.038;7.216;2022-07-06T00:48:41;5.50;;;3.30;;
1128;SDS011;553;51.038;7.216;2022-07-06T00:51:08;4.97;;;3.60;;
1128;SDS011;553;51.038;7.216;2022-07-06T00:53:36;5.83;;;3.43;;
1128;SDS011;553;51.038;7.216;2022-07-06T00:56:03;9.90;;;3.53;;
1128;SDS011;553;51.038;7.216;2022-07-06T00:58:30;7.03;;;3.30;;
1128;SDS011;553;51.038;7.216;2022-07-06T01:00:57;6.90;;;3.60;;
1128;SDS011;553;51.038;7.216;2022-07-06T01:03:24;7.43;;;3.60;;
1128;SDS011;553;51.038;7.216;2022-07-06T01:05:51;4.70;;;3.37;;
1128;SDS011;553;51.038;7.216;2022-07-06T01:08:17;7.43;;;3.60;;
1128;SDS011;553;51.038;7.216;2022-07-06T01:10:45;9.33;;;3.23;;
1128;SDS011;553;51.038;7.216;2022-07-06T01:13:12;6.00;;;3.60;;
1128;SDS011;553;51.038;7.216;2022-07-06T01:15:39;7.37;;;3.23;;
1128;SDS011;553;51.038;7.216;2022-07-06T01:18:06;8.07;;;3.90;;
1128;SDS011;553;51.038;7.216;2022-07-06T01:20:36;6.33;;;3.57;;
1128;SDS011;553;51.038;7.216;2022-07-06T01:23:03;6.83;;;3.53;;
1128;SDS011;553;51.038;7.216;2022-07-06T01:25:30;6.43;;;4.03;;
1128;SDS011;553;51.038;7.216;2022-07-06T01:27:57;7.60;;;3.93;;
1128;SDS011;553;51.038;7.216;2022-07-06T01:30:29;4.67;;;2.83;;
1128;SDS011;553;51.038;7.216;2022-07-06T01:32:56;6.90;;;4.10;;
1128;SDS011;553;51.038;7.216;2022-07-06T01:35:23;9.80;;;4.63;;
1128;SDS011;553;51.038;7.216;2022-07-06T01:37:50;4.23;;;3.30;;
1128;SDS011;553;51.038;7.216;2022-07-06T01:40:17;8.10;;;3.60;;
1128;SDS011;553;51.038;7.216;2022-07-06T01:42:44;6.10;;;3.40;;
1128;SDS011;553;51.038;7.216;2022-07-06T01:45:11;6.17;;;3.60;;
1128;SDS011;553;51.038;7.216;2022-07-06T01:47:40;6.77;;;3.50;;
1128;SDS011;553;51.038;7.216;2022-07-06T01:50:07;7.03;;;3.37;;
1128;SDS011;553;51.038;7.216;2022-07-06T01:52:41;9.33;;;3.70;;
1128;SDS011;553;51.038;7.216;2022-07-06T01:55:08;7.07;;;3.50;;
1128;SDS011;553;51.038;7.216;2022-07-06T01:57:36;5.60;;;3.70;;
1128;SDS011;553;51.038;7.216;2022-07-06T02:00:05;6.57;;;3.63;;
1128;SDS011;553;51.038;7.216;2022-07-06T02:02:37;6.03;;;3.40;;
1128;SDS011;553;51.038;7.216;2022-07-06T02:05:05;6.60;;;3.30;;
1128;SDS011;553;51.038;7.216;2022-07-06T02:07:32;7.07;;;3.50;;
1128;SDS011;553;51.038;7.216;2022-07-06T02:10:00;5.77;;;4.10;;
1128;SDS011;553;51.038;7.216;2022-07-06T02:12:27;7.97;;;3.67;;
1128;SDS011;553;51.038;7.216;2022-07-06T02:14:53;6.77;;;4.20;;
1128;SDS011;553;51.038;7.216;2022-07-06T02:17:20;7.43;;;3.60;;
1128;SDS011;553;51.038;7.216;2022-07-06T02:19:48;4.53;;;3.60;;
1128;SDS011;553;51.038;7.216;2022-07-06T02:22:15;9.70;;;3.80;;
1128;SDS011;553;51.038;7.216;2022-07-06T02:24:42;5.30;;;3.63;;
1128;SDS011;553;51.038;7.216;2022-07-06T02:27:09;10.30;;;4.20;;
1128;SDS011;553;51.038;7.216;2022-07-06T02:29:36;7.23;;;3.43;;
1128;SDS011;553;51.038;7.216;2022-07-06T02:32:03;8.73;;;4.07;;
1128;SDS011;553;51.038;7.216;2022-07-06T02:34:30;5.87;;;4.13;;
1128;SDS011;553;51.038;7.216;2022-07-06T02:36:57;7.83;;;4.60;;
1128;SDS011;553;51.038;7.216;2022-07-06T02:39:23;5.70;;;4.13;;
1128;SDS011;553;51.038;7.216;2022-07-06T02:41:51;8.13;;;4.20;;
1128;SDS011;553;51.038;7.216;2022-07-06T02:44:18;11.93;;;4.30;;
1128;SDS011;553;51.038;7.216;2022-07-06T02:46:44;8.67;;;3.77;;
1128;SDS011;553;51.038;7.216;2022-07-06T02:49:11;7.33;;;4.00;;
1128;SDS011;553;51.038;7.216;2022-07-06T02:51:38;4.23;;;3.33;;
1128;SDS011;553;51.038;7.216;2022-07-06T02:54:05;6.93;;;4.20;;
1128;SDS011;553;51.038;7.216;2022-07-06T02:56:32;8.03;;;4.30;;
1128;SDS011;553;51.038;7.216;2022-07-06T02:58:59;7.13;;;4.33;;
1128;SDS011;553;51.038;7.216;2022-07-06T03:01:27;4.67;;;3.83;;
1128;SDS011;553;51.038;7.216;2022-07-06T03:03:54;10.37;;;4.30;;
1128;SDS011;553;51.038;7.216;2022-07-06T03:06:21;5.33;;;3.93;;
1128;SDS011;553;51.038;7.216;2022-07-06T03:08:48;4.60;;;3.43;;
1128;SDS011;553;51.038;7.216;2022-07-06T03:11:14;6.40;;;3.97;;
1128;SDS011;553;51.038;7.216;2022-07-06T03:13:41;6.83;;;4.27;;
1128;SDS011;553;51.038;7.216;2022-07-06T03:16:08;6.20;;;4.17;;
1128;SDS011;553;51.038;7.216;2022-07-06T03:18:35;5.90;;;4.67;;
1128;SDS011;553;51.038;7.216;2022-07-06T03:21:03;6.80;;;4.40;;
1128;SDS011;553;51.038;7.216;2022-07-06T03:23:31;8.83;;;4.23;;
1128;SDS011;553;51.038;7.216;2022-07-06T03:25:57;6.43;;;4.40;;
1128;SDS011;553;51.038;7.216;2022-07-06T03:28:24;8.57;;;4.40;;
1128;SDS011;553;51.038;7.216;2022-07-06T03:30:52;9.40;;;4.40;;
1128;SDS011;553;51.038;7.216;2022-07-06T03:33:19;11.10;;;4.97;;
1128;SDS011;553;51.038;7.216;2022-07-06T03:35:46;5.20;;;4.50;;
1128;SDS011;553;51.038;7.216;2022-07-06T03:38:13;10.03;;;5.27;;
1128;SDS011;553;51.038;7.216;2022-07-06T03:40:41;7.33;;;4.20;;
1128;SDS011;553;51.038;7.216;2022-07-06T03:43:08;4.47;;;4.07;;
1128;SDS011;553;51.038;7.216;2022-07-06T03:45:37;6.90;;;4.03;;
1128;SDS011;553;51.038;7.216;2022-07-06T03:48:04;4.70;;;3.53;;
1128;SDS011;553;51.038;7.216;2022-07-06T03:50:34;4.93;;;3.40;;
1128;SDS011;553;51.038;7.216;2022-07-06T03:53:02;5.70;;;3.73;;
1128;SDS011;553;51.038;7.216;2022-07-06T03:55:29;5.90;;;3.57;;
1128;SDS011;553;51.038;7.216;2022-07-06T03:58:00;5.37;;;3.07;;
1128;SDS011;553;51.038;7.216;2022-07-06T04:00:33;7.20;;;3.27;;
1128;SDS011;553;51.038;7.216;2022-07-06T04:03:03;6.30;;;3.40;;
1128;SDS011;553;51.038;7.216;2022-07-06T04:05:36;5.00;;;3.00;;
1128;SDS011;553;51.038;7.216;2022-07-06T04:08:03;7.30;;;3.83;;
1128;SDS011;553;51.038;7.216;2022-07-06T04:10:36;4.53;;;3.43;;
1128;SDS011;553;51.038;7.216;2022-07-06T04:13:03;4.80;;;3.20;;
1128;SDS011;553;51.038;7.216;2022-07-06T04:15:30;8.30;;;3.90;;
1128;SDS011;553;51.038;7.216;2022-07-06T04:17:58;6.90;;;3.13;;
1128;SDS011;553;51.038;7.216;2022-07-06T04:20:32;3.97;;;3.20;;
1128;SDS011;553;51.038;7.216;2022-07-06T04:23:00;6.13;;;2.97;;
1128;SDS011;553;51.038;7.216;2022-07-06T04:25:27;8.37;;;3.93;;
1128;SDS011;553;51.038;7.216;2022-07-06T04:27:57;6.63;;;3.80;;
1128;SDS011;553;51.038;7.216;2022-07-06T04:30:25;6.47;;;4.03;;
1128;SDS011;553;51.038;7.216;2022-07-06T04:32:53;5.50;;;3.90;;
1128;SDS011;553;51.038;7.216;2022-07-06T04:35:23;6.70;;;4.00;;
1128;SDS011;553;51.038;7.216;2022-07-06T04:37:52;10.90;;;4.40;;
1128;SDS011;553;51.038;7.216;2022-07-06T04:40:20;5.03;;;3.30;;
1128;SDS011;553;51.038;7.216;2022-07-06T04:42:49;6.20;;;4.10;;
1128;SDS011;553;51.038;7.216;2022-07-06T04:45:16;6.93;;;4.50;;
1128;SDS011;553;51.038;7.216;2022-07-06T04:47:43;10.60;;;4.50;;
1128;SDS011;553;51.038;7.216;2022-07-06T04:50:11;9.27;;;4.93;;
1128;SDS011;553;51.038;7.216;2022-07-06T04:52:39;13.30;;;4.67;;
1128;SDS011;553;51.038;7.216;2022-07-06T04:55:06;6.20;;;4.40;;
1128;SDS011;553;51.038;7.216;2022-07-06T04:57:35;7.00;;;4.20;;
1128;SDS011;553;51.038;7.216;2022-07-06T05:00:03;6.93;;;4.40;;
1128;SDS011;553;51.038;7.216;2022-07-06T05:02:31;6.63;;;4.23;;
1128;SDS011;553;51.038;7.216;2022-07-06T05:04:58;7.23;;;4.40;;
1128;SDS011;553;51.038;7.216;2022-07-06T05:07:25;6.73;;;4.53;;
1128;SDS011;553;51.038;7.216;2022-07-06T05:09:57;8.20;;;4.97;;
1128;SDS011;553;51.038;7.216;2022-07-06T05:12:24;7.60;;;5.37;;
1128;SDS011;553;51.038;7.216;2022-07-06T05:14:51;5.67;;;4.57;;
1128;SDS011;553;51.038;7.216;2022-07-06T05:17:20;7.50;;;4.30;;
1128;SDS011;553;51.038;7.216;2022-07-06T05:19:55;9.60;;;5.20;;
1128;SDS011;553;51.038;7.216;2022-07-06T05:22:23;8.27;;;4.77;;
1128;SDS011;553;51.038;7.216;2022-07-06T05:24:51;7.47;;;5.10;;
1128;SDS011;553;51.038;7.216;2022-07-06T05:27:18;12.10;;;5.37;;
1128;SDS011;553;51.038;7.216;2022-07-06T05:29:46;8.53;;;4.70;;
1128;SDS011;553;51.038;7.216;2022-07-06T05:32:14;6.60;;;4.50;;
1128;SDS011;553;51.038;7.216;2022-07-06T05:34:41;11.03;;;3.87;;
1128;SDS011;553;51.038;7.216;2022-07-06T05:37:09;9.60;;;4.73;;
1128;SDS011;553;51.038;7.216;2022-07-06T05:39:36;6.27;;;4.33;;
1128;SDS011;553;51.038;7.216;2022-07-06T05:42:08;8.87;;;4.60;;
1128;SDS011;553;51.038;7.216;2022-07-06T05:44:36;5.27;;;3.90;;
1128;SDS011;553;51.038;7.216;2022-07-06T05:47:03;6.90;;;4.20;;
1128;SDS011;553;51.038;7.216;2022-07-06T05:49:49;6.00;;;3.93;;
1128;SDS011;553;51.038;7.216;2022-07-06T05:52:36;6.70;;;3.20;;
1128;SDS011;553;51.038;7.216;2022-07-06T05:55:03;6.67;;;3.30;;
1128;SDS011;553;51.038;7.216;2022-07-06T05:57:31;7.07;;;3.43;;
1128;SDS011;553;51.038;7.216;2022-07-06T05:59:57;2.73;;;2.40;;
1128;SDS011;553;51.038;7.216;2022-07-06T06:02:25;6.80;;;3.13;;
1128;SDS011;553;51.038;7.216;2022-07-06T06:04:53;8.10;;;2.57;;
1128;SDS011;553;51.038;7.216;2022-07-06T06:07:20;6.07;;;2.43;;
1128;SDS011;553;51.038;7.216;2022-07-06T06:09:46;5.67;;;3.10;;
1128;SDS011;553;51.038;7.216;2022-07-06T06:12:13;3.53;;;2.57;;
1128;SDS011;553;51.038;7.216;2022-07-06T06:14:40;7.13;;;2.80;;
1128;SDS011;553;51.038;7.216;2022-07-06T06:17:07;6.03;;;2.50;;
1128;SDS011;553;51.038;7.216;2022-07-06T06:19:36;5.73;;;2.70;;
1128;SDS011;553;51.038;7.216;2022-07-06T06:22:03;6.47;;;2.60;;
1128;SDS011;553;51.038;7.216;2022-07-06T06:24:30;4.23;;;2.70;;
1128;SDS011;553;51.038;7.216;2022-07-06T06:26:57;6.93;;;2.40;;
1128;SDS011;553;51.038;7.216;2022-07-06T06:29:25;5.07;;;2.60;;
1128;SDS011;553;51.038;7.216;2022-07-06T06:31:52;5.00;;;3.20;;
1128;SDS011;553;51.038;7.216;2022-07-06T06:34:18;6.80;;;3.10;;
1128;SDS011;553;51.038;7.216;2022-07-06T06:36:45;8.37;;;3.03;;
1128;SDS011;553;51.038;7.216;2022-07-06T06:39:12;3.50;;;2.63;;
1128;SDS011;553;51.038;7.216;2022-07-06T06:41:41;4.13;;;2.40;;
1128;SDS011;553;51.038;7.216;2022-07-06T06:44:08;3.00;;;2.10;;
1128;SDS011;553;51.038;7.216;2022-07-06T06:46:39;5.90;;;2.47;;
1128;SDS011;553;51.038;7.216;2022-07-06T06:49:07;5.07;;;2.10;;
1128;SDS011;553;51.038;7.216;2022-07-06T06:51:33;4.83;;;1.90;;
1128;SDS011;553;51.038;7.216;2022-07-06T06:54:01;3.00;;;2.23;;
1128;SDS011;553;51.038;7.216;2022-07-06T06:56:27;5.40;;;1.97;;
1128;SDS011;553;51.038;7.216;2022-07-06T06:58:54;4.00;;;1.83;;
1128;SDS011;553;51.038;7.216;2022-07-06T07:01:41;2.67;;;1.60;;
1128;SDS011;553;51.038;7.216;2022-07-06T07:04:08;4.70;;;1.90;;
1128;SDS011;553;51.038;7.216;2022-07-06T07:06:35;4.90;;;2.27;;
1128;SDS011;553;51.038;7.216;2022-07-06T07:09:02;4.03;;;2.07;;
1128;SDS011;553;51.038;7.216;2022-07-06T07:11:29;7.40;;;2.23;;
1128;SDS011;553;51.038;7.216;2022-07-06T07:13:55;4.40;;;2.00;;
1128;SDS011;553;51.038;7.216;2022-07-06T07:16:22;4.10;;;2.03;;
1128;SDS011;553;51.038;7.216;2022-07-06T07:18:50;4.47;;;2.13;;
1128;SDS011;553;51.038;7.216;2022-07-06T07:21:17;5.87;;;2.47;;
1128;SDS011;553;51.038;7.216;2022-07-06T07:23:44;6.23;;;2.33;;
1128;SDS011;553;51.038;7.216;2022-07-06T07:26:11;6.40;;;2.30;;
1128;SDS011;553;51.038;7.216;2022-07-06T07:28:38;4.93;;;1.90;;
1128;SDS011;553;51.038;7.216;2022-07-06T07:31:05;7.63;;;3.03;;
1128;SDS011;553;51.038;7.216;2022-07-06T07:33:31;5.57;;;2.40;;
1128;SDS011;553;51.038;7.216;2022-07-06T07:36:00;4.23;;;2.00;;
1128;SDS011;553;51.038;7.216;2022-07-06T07:38:27;4.70;;;1.80;;
1128;SDS011;553;51.038;7.216;2022-07-06T07:40:54;5.13;;;2.30;;
1128;SDS011;553;51.038;7.216;2022-07-06T07:43:21;5.33;;;1.90;;
1128;SDS011;553;51.038;7.216;2022-07-06T07:45:47;4.40;;;2.40;;
1128;SDS011;553;51.038;7.216;2022-07-06T07:48:14;4.37;;;2.90;;
1128;SDS011;553;51.038;7.216;2022-07-06T07:50:41;4.33;;;2.83;;
1128;SDS011;553;51.038;7.216;2022-07-06T07:53:08;3.20;;;2.90;;
1128;SDS011;553;51.038;7.216;2022-07-06T07:55:35;7.57;;;2.87;;
1128;SDS011;553;51.038;7.216;2022-07-06T07:58:07;4.00;;;1.73;;
1128;SDS011;553;51.038;7.216;2022-07-06T08:00:34;4.90;;;1.60;;
1128;SDS011;553;51.038;7.216;2022-07-06T08:03:01;2.67;;;1.87;;
1128;SDS011;553;51.038;7.216;2022-07-06T08:05:28;5.53;;;2.20;;
1128;SDS011;553;51.038;7.216;2022-07-06T08:07:55;7.20;;;2.33;;
1128;SDS011;553;51.038;7.216;2022-07-06T08:10:22;3.60;;;2.03;;
1128;SDS011;553;51.038;7.216;2022-07-06T08:12:48;4.60;;;1.40;;
1128;SDS011;553;51.038;7.216;2022-07-06T08:15:15;3.40;;;0.90;;
1128;SDS011;553;51.038;7.216;2022-07-06T08:17:42;2.90;;;0.87;;
1128;SDS011;553;51.038;7.216;2022-07-06T08:20:09;3.07;;;1.10;;
1128;SDS011;553;51.038;7.216;2022-07-06T08:22:37;1.77;;;0.90;;
1128;SDS011;553;51.038;7.216;2022-07-06T08:25:05;1.63;;;1.03;;
1128;SDS011;553;51.038;7.216;2022-07-06T08:27:32;4.80;;;0.90;;
1128;SDS011;553;51.038;7.216;2022-07-06T08:29:59;3.17;;;1.03;;
1128;SDS011;553;51.038;7.216;2022-07-06T08:32:26;3.63;;;1.20;;
1128;SDS011;553;51.038;7.216;2022-07-06T08:35:13;3.33;;;1.17;;
1128;SDS011;553;51.038;7.216;2022-07-06T08:37:40;2.07;;;0.63;;
1128;SDS011;553;51.038;7.216;2022-07-06T08:40:07;5.07;;;1.13;;
1128;SDS011;553;51.038;7.216;2022-07-06T08:42:35;1.47;;;0.97;;
1128;SDS011;553;51.038;7.216;2022-07-06T08:45:03;3.93;;;1.03;;
1128;SDS011;553;51.038;7.216;2022-07-06T08:47:32;3.70;;;1.17;;
1128;SDS011;553;51.038;7.216;2022-07-06T08:50:01;2.10;;;1.23;;
1128;SDS011;553;51.038;7.216;2022-07-06T08:52:28;4.60;;;1.73;;
1128;SDS011;553;51.038;7.216;2022-07-06T08:54:57;4.63;;;1.20;;
1128;SDS011;553;51.038;7.216;2022-07-06T08:57:24;3.23;;;1.37;;
1128;SDS011;553;51.038;7.216;2022-07-06T08:59:51;4.07;;;1.23;;
1128;SDS011;553;51.038;7.216;2022-07-06T09:02:18;2.43;;;1.30;;
1128;SDS011;553;51.038;7.216;2022-07-06T09:04:49;4.30;;;1.17;;
1128;SDS011;553;51.038;7.216;2022-07-06T09:07:19;3.37;;;1.37;;
1128;SDS011;553;51.038;7.216;2022-07-06T09:10:07;4.40;;;1.30;;
1128;SDS011;553;51.038;7.216;2022-07-06T09:12:35;3.33;;;1.47;;
1128;SDS011;553;51.038;7.216;2022-07-06T09:15:02;2.17;;;1.10;;
1128;SDS011;553;51.038;7.216;2022-07-06T09:17:29;3.20;;;1.30;;
1128;SDS011;553;51.038;7.216;2022-07-06T09:19:56;3.83;;;1.37;;
1128;SDS011;553;51.038;7.216;2022-07-06T09:22:27;1.70;;;1.20;;
1128;SDS011;553;51.038;7.216;2022-07-06T09:27:30;3.17;;;0.93;;
1128;SDS011;553;51.038;7.216;2022-07-06T09:30:00;2.37;;;0.90;;
1128;SDS011;553;51.038;7.216;2022-07-06T09:32:30;4.30;;;1.03;;
1128;SDS011;553;51.038;7.216;2022-07-06T09:34:57;6.50;;;1.60;;
1128;SDS011;553;51.038;7.216;2022-07-06T09:37:24;5.73;;;0.90;;
1128;SDS011;553;51.038;7.216;2022-07-06T09:39:55;2.73;;;0.50;;
1128;SDS011;553;51.038;7.216;2022-07-06T09:42:25;4.27;;;1.20;;
1128;SDS011;553;51.038;7.216;2022-07-06T09:44:52;2.03;;;1.13;;
1128;SDS011;553;51.038;7.216;2022-07-06T09:47:20;1.47;;;0.73;;
1128;SDS011;553;51.038;7.216;2022-07-06T09:49:47;2.20;;;0.87;;
1128;SDS011;553;51.038;7.216;2022-07-06T09:52:14;2.13;;;0.80;;
1128;SDS011;553;51.038;7.216;2022-07-06T09:54:41;1.37;;;0.60;;
1128;SDS011;553;51.038;7.216;2022-07-06T09:57:08;1.33;;;0.50;;
1128;SDS011;553;51.038;7.216;2022-07-06T09:59:35;1.50;;;0.50;;
1128;SDS011;553;51.038;7.216;2022-07-06T10:02:03;1.67;;;0.60;;
1128;SDS011;553;51.038;7.216;2022-07-06T10:04:32;2.80;;;1.10;;
1128;SDS011;553;51.038;7.216;2022-07-06T10:07:00;2.10;;;1.33;;
1128;SDS011;553;51.038;7.216;2022-07-06T10:09:27;1.37;;;0.60;;
1128;SDS011;553;51.038;7.216;2022-07-06T10:11:58;2.30;;;0.60;;
1128;SDS011;553;51.038;7.216;2022-07-06T10:14:28;1.60;;;0.57;;
1128;SDS011;553;51.038;7.216;2022-07-06T10:16:56;1.57;;;0.70;;
1128;SDS011;553;51.038;7.216;2022-07-06T10:19:25;1.57;;;0.80;;
1128;SDS011;553;51.038;7.216;2022-07-06T10:21:53;1.60;;;0.67;;
1128;SDS011;553;51.038;7.216;2022-07-06T10:24:22;4.83;;;0.80;;
1128;SDS011;553;51.038;7.216;2022-07-06T10:26:49;1.70;;;0.70;;
1128;SDS011;553;51.038;7.216;2022-07-06T10:29:17;1.50;;;0.70;;
1128;SDS011;553;51.038;7.216;2022-07-06T10:31:45;2.57;;;0.83;;
1128;SDS011;553;51.038;7.216;2022-07-06T10:34:14;2.07;;;0.97;;
1128;SDS011;553;51.038;7.216;2022-07-06T10:36:44;1.23;;;0.70;;
1128;SDS011;553;51.038;7.216;2022-07-06T10:39:14;3.40;;;0.97;;
1128;SDS011;553;51.038;7.216;2022-07-06T10:41:59;1.97;;;0.90;;
1128;SDS011;553;51.038;7.216;2022-07-06T10:44:26;1.50;;;0.70;;
1128;SDS011;553;51.038;7.216;2022-07-06T10:46:54;2.87;;;0.90;;
1128;SDS011;553;51.038;7.216;2022-07-06T10:49:22;3.00;;;0.90;;
1128;SDS011;553;51.038;7.216;2022-07-06T10:52:11;2.70;;;0.97;;
1128;SDS011;553;51.038;7.216;2022-07-06T10:54:41;3.27;;;1.00;;
1128;SDS011;553;51.038;7.216;2022-07-06T10:57:10;2.40;;;1.13;;
1128;SDS011;553;51.038;7.216;2022-07-06T10:59:41;4.37;;;1.00;;
1128;SDS011;553;51.038;7.216;2022-07-06T11:02:37;4.20;;;1.10;;
1128;SDS011;553;51.038;7.216;2022-07-06T11:05:10;4.70;;;1.30;;
1128;SDS011;553;51.038;7.216;2022-07-06T11:07:49;2.57;;;0.80;;
1128;SDS011;553;51.038;7.216;2022-07-06T11:10:16;1.87;;;0.80;;
1128;SDS011;553;51.038;7.216;2022-07-06T11:12:46;4.20;;;1.00;;
1128;SDS011;553;51.038;7.216;2022-07-06T11:15:33;2.00;;;1.17;;
1128;SDS011;553;51.038;7.216;2022-07-06T11:18:12;4.80;;;1.50;;
1128;SDS011;553;51.038;7.216;2022-07-06T11:20:41;4.50;;;1.20;;
1128;SDS011;553;51.038;7.216;2022-07-06T11:23:08;1.43;;;1.10;;
1128;SDS011;553;51.038;7.216;2022-07-06T11:25:39;2.20;;;1.10;;
1128;SDS011;553;51.038;7.216;2022-07-06T11:28:06;3.50;;;1.40;;
1128;SDS011;553;51.038;7.216;2022-07-06T11:30:33;3.20;;;1.30;;
1128;SDS011;553;51.038;7.216;2022-07-06T11:33:01;3.13;;;1.60;;
1128;SDS011;553;51.038;7.216;2022-07-06T11:35:27;4.80;;;1.60;;
1128;SDS011;553;51.038;7.216;2022-07-06T11:37:54;4.60;;;1.67;;
1128;SDS011;553;51.038;7.216;2022-07-06T11:40:21;4.60;;;1.50;;
1128;SDS011;553;51.038;7.216;2022-07-06T11:42:53;6.60;;;1.57;;
1128;SDS011;553;51.038;7.216;2022-07-06T11:45:26;4.50;;;1.87;;
1128;SDS011;553;51.038;7.216;2022-07-06T11:48:09;1.63;;;1.40;;
1128;SDS011;553;51.038;7.216;2022-07-06T11:50:36;2.60;;;1.60;;
1128;SDS011;553;51.038;7.216;2022-07-06T11:53:03;5.33;;;1.80;;
1128;SDS011;553;51.038;7.216;2022-07-06T11:55:29;3.33;;;1.63;;
1128;SDS011;553;51.038;7.216;2022-07-06T11:57:56;4.00;;;1.50;;
1128;SDS011;553;51.038;7.216;2022-07-06T12:00:26;2.53;;;1.60;;
1128;SDS011;553;51.038;7.216;2022-07-06T12:03:00;2.50;;;1.67;;
1128;SDS011;553;51.038;7.216;2022-07-06T12:05:30;4.40;;;1.70;;
1128;SDS011;553;51.038;7.216;2022-07-06T12:08:07;2.40;;;1.43;;
1128;SDS011;553;51.038;7.216;2022-07-06T12:10:35;3.27;;;1.90;;
1128;SDS011;553;51.038;7.216;2022-07-06T12:13:04;2.60;;;1.70;;
1128;SDS011;553;51.038;7.216;2022-07-06T12:15:32;5.30;;;2.00;;
1128;SDS011;553;51.038;7.216;2022-07-06T12:17:59;5.30;;;1.93;;
1128;SDS011;553;51.038;7.216;2022-07-06T12:20:26;3.13;;;1.63;;
1128;SDS011;553;51.038;7.216;2022-07-06T12:23:05;7.50;;;1.90;;
1128;SDS011;553;51.038;7.216;2022-07-06T12:25:34;2.67;;;1.67;;
1128;SDS011;553;51.038;7.216;2022-07-06T12:28:02;3.00;;;2.13;;
1128;SDS011;553;51.038;7.216;2022-07-06T12:30:30;3.87;;;2.30;;
1128;SDS011;553;51.038;7.216;2022-07-06T12:33:15;4.53;;;2.83;;
1128;SDS011;553;51.038;7.216;2022-07-06T12:35:47;2.73;;;2.47;;
1128;SDS011;553;51.038;7.216;2022-07-06T12:38:24;2.83;;;2.07;;
1128;SDS011;553;51.038;7.216;2022-07-06T12:40:52;4.43;;;2.40;;
1128;SDS011;553;51.038;7.216;2022-07-06T12:43:38;2.93;;;1.90;;
1128;SDS011;553;51.038;7.216;2022-07-06T12:48:53;7.90;;;2.70;;
1128;SDS011;553;51.038;7.216;2022-07-06T12:51:20;2.47;;;1.80;;
1128;SDS011;553;51.038;7.216;2022-07-06T12:53:47;4.80;;;2.10;;
1128;SDS011;553;51.038;7.216;2022-07-06T12:56:14;2.73;;;1.40;;
1128;SDS011;553;51.038;7.216;2022-07-06T13:01:25;2.20;;;1.20;;
1128;SDS011;553;51.038;7.216;2022-07-06T13:03:56;2.20;;;1.30;;
1128;SDS011;553;51.038;7.216;2022-07-06T13:06:28;3.70;;;1.23;;
1128;SDS011;553;51.038;7.216;2022-07-06T13:09:03;2.23;;;1.30;;
1128;SDS011;553;51.038;7.216;2022-07-06T13:11:30;4.40;;;1.37;;
1128;SDS011;553;51.038;7.216;2022-07-06T13:13:57;3.27;;;1.30;;
1128;SDS011;553;51.038;7.216;2022-07-06T13:16:24;4.33;;;1.70;;
1128;SDS011;553;51.038;7.216;2022-07-06T13:18:56;2.37;;;1.30;;
1128;SDS011;553;51.038;7.216;2022-07-06T13:21:23;2.63;;;1.30;;
1128;SDS011;553;51.038;7.216;2022-07-06T13:23:49;2.67;;;1.30;;
1128;SDS011;553;51.038;7.216;2022-07-06T13:26:16;6.30;;;1.20;;
1128;SDS011;553;51.038;7.216;2022-07-06T13:28:43;2.37;;;0.90;;
1128;SDS011;553;51.038;7.216;2022-07-06T13:31:10;1.93;;;1.00;;
1128;SDS011;553;51.038;7.216;2022-07-06T13:33:38;1.60;;;1.17;;
1128;SDS011;553;51.038;7.216;2022-07-06T13:36:04;1.87;;;1.00;;
1128;SDS011;553;51.038;7.216;2022-07-06T13:38:31;1.60;;;1.20;;
1128;SDS011;553;51.038;7.216;2022-07-06T13:40:58;3.20;;;1.30;;
1128;SDS011;553;51.038;7.216;2022-07-06T13:43:25;1.67;;;1.00;;
1128;SDS011;553;51.038;7.216;2022-07-06T13:45:53;3.33;;;1.20;;
1128;SDS011;553;51.038;7.216;2022-07-06T13:48:19;2.40;;;1.10;;
1128;SDS011;553;51.038;7.216;2022-07-06T13:50:46;3.40;;;1.13;;
1128;SDS011;553;51.038;7.216;2022-07-06T13:53:13;1.80;;;1.10;;
1128;SDS011;553;51.038;7.216;2022-07-06T13:55:40;1.97;;;0.87;;
1128;SDS011;553;51.038;7.216;2022-07-06T13:58:06;2.90;;;1.20;;
1128;SDS011;553;51.038;7.216;2022-07-06T14:00:34;2.40;;;1.30;;
1128;SDS011;553;51.038;7.216;2022-07-06T14:03:01;3.20;;;1.77;;
1128;SDS011;553;51.038;7.216;2022-07-06T14:05:28;2.43;;;1.30;;
1128;SDS011;553;51.038;7.216;2022-07-06T14:07:55;2.20;;;1.40;;
1128;SDS011;553;51.038;7.216;2022-07-06T14:10:22;2.20;;;1.20;;
1128;SDS011;553;51.038;7.216;2022-07-06T14:12:49;2.33;;;1.23;;
1128;SDS011;553;51.038;7.216;2022-07-06T14:15:16;4.53;;;1.60;;
1128;SDS011;553;51.038;7.216;2022-07-06T14:17:43;3.50;;;1.50;;
1128;SDS011;553;51.038;7.216;2022-07-06T14:20:10;2.27;;;1.43;;
1128;SDS011;553;51.038;7.216;2022-07-06T14:22:37;3.77;;;1.10;;
1128;SDS011;553;51.038;7.216;2022-07-06T14:25:04;2.00;;;1.20;;
1128;SDS011;553;51.038;7.216;2022-07-06T14:27:33;4.50;;;1.63;;
1128;SDS011;553;51.038;7.216;2022-07-06T14:30:01;2.87;;;1.57;;
1128;SDS011;553;51.038;7.216;2022-07-06T14:32:28;1.83;;;1.63;;
1128;SDS011;553;51.038;7.216;2022-07-06T14:34:55;2.37;;;1.47;;
1128;SDS011;553;51.038;7.216;2022-07-06T14:37:21;4.80;;;1.27;;
1128;SDS011;553;51.038;7.216;2022-07-06T14:39:48;1.30;;;0.80;;
1128;SDS011;553;51.038;7.216;2022-07-06T14:42:15;4.73;;;1.27;;
1128;SDS011;553;51.038;7.216;2022-07-06T14:44:42;6.30;;;1.60;;
1128;SDS011;553;51.038;7.216;2022-07-06T14:47:08;4.37;;;1.43;;
1128;SDS011;553;51.038;7.216;2022-07-06T14:49:35;2.37;;;0.93;;
1128;SDS011;553;51.038;7.216;2022-07-06T14:52:02;4.23;;;1.13;;
1128;SDS011;553;51.038;7.216;2022-07-06T14:54:29;2.60;;;1.07;;
1128;SDS011;553;51.038;7.216;2022-07-06T14:56:56;2.27;;;1.10;;
1128;SDS011;553;51.038;7.216;2022-07-06T14:59:23;5.03;;;1.67;;
1128;SDS011;553;51.038;7.216;2022-07-06T15:01:51;3.43;;;1.30;;
1128;SDS011;553;51.038;7.216;2022-07-06T15:04:19;1.50;;;0.97;;
1128;SDS011;553;51.038;7.216;2022-07-06T15:06:46;2.83;;;1.13;;
1128;SDS011;553;51.038;7.216;2022-07-06T15:09:22;3.43;;;1.20;;
1128;SDS011;553;51.038;7.216;2022-07-06T15:11:49;3.80;;;1.40;;
1128;SDS011;553;51.038;7.216;2022-07-06T15:14:16;2.73;;;0.90;;
1128;SDS011;553;51.038;7.216;2022-07-06T15:16:44;2.33;;;1.23;;
1128;SDS011;553;51.038;7.216;2022-07-06T15:19:11;4.27;;;1.20;;
1128;SDS011;553;51.038;7.216;2022-07-06T15:21:38;2.00;;;0.70;;
1128;SDS011;553;51.038;7.216;2022-07-06T15:24:05;1.90;;;0.93;;
1128;SDS011;553;51.038;7.216;2022-07-06T15:26:32;2.53;;;1.00;;
1128;SDS011;553;51.038;7.216;2022-07-06T15:28:59;2.80;;;1.30;;
1128;SDS011;553;51.038;7.216;2022-07-06T15:31:26;3.43;;;0.80;;
1128;SDS011;553;51.038;7.216;2022-07-06T15:33:53;3.37;;;0.93;;
1128;SDS011;553;51.038;7.216;2022-07-06T15:36:20;2.60;;;1.00;;
1128;SDS011;553;51.038;7.216;2022-07-06T15:38:47;4.80;;;1.03;;
1128;SDS011;553;51.038;7.216;2022-07-06T15:41:13;2.13;;;0.93;;
1128;SDS011;553;51.038;7.216;2022-07-06T15:43:40;1.93;;;1.07;;
1128;SDS011;553;51.038;7.216;2022-07-06T15:46:07;3.10;;;1.10;;